Time;durP1;ratioP1;P1;durP2;ratioP2;P2;SDS_P1;SDS_P2;PMS_P1;PMS_P2;Temp;Humidity;BMP_temperature;BMP_pressure;BME280_temperature;BME280_humidity;BME280_pressure;Samples;Min_cycle;Max_cycle;Signal;HPM_P1;HPM_P2
2022/06/30 00:00:16;;;;;;;3.00;2.80;;;;;;;;;;10564991;28;20247;-68
2022/06/30 00:05:39;;;;;;;6.03;3.55;;;;;;;;;;10572833;28;20040;-68
2022/06/30 00:10:41;;;;;;;3.78;3.45;;;;;;;;;;10557893;28;20052;-68
2022/06/30 00:15:43;;;;;;;3.88;3.47;;;;;;;;;;10572293;28;20381;-68
2022/06/30 00:20:46;;;;;;;3.53;3.17;;;;;;;;;;10572020;28;20044;-68
2022/06/30 00:25:49;;;;;;;6.50;4.10;;;;;;;;;;10572489;28;20048;-68
2022/06/30 00:30:52;;;;;;;3.30;3.05;;;;;;;;;;10572201;28;20296;-68
2022/06/30 00:35:55;;;;;;;5.30;3.93;;;;;;;;;;10571763;28;20045;-68
2022/06/30 00:40:58;;;;;;;3.80;3.50;;;;;;;;;;10572042;28;20351;-68
2022/06/30 00:46:00;;;;;;;6.57;3.55;;;;;;;;;;10547000;28;20056;-68
2022/06/30 00:51:05;;;;;;;7.43;3.78;;;;;;;;;;10550124;28;20040;-68
2022/06/30 00:56:09;;;;;;;3.03;2.83;;;;;;;;;;10565384;28;20324;-68
2022/06/30 01:01:12;;;;;;;;;;;;;;;;;;10568843;28;20067;-68
2022/06/30 01:06:16;;;;;;;3.85;3.42;;;;;;;;;;10578820;28;19962;-68
2022/06/30 01:16:39;;;;;;;4.85;3.20;;;;;;;;;;10579534;28;20048;-68
2022/06/30 01:21:58;;;;;;;4.77;3.77;;;;;;;;;;10578343;28;20044;-68
2022/06/30 01:27:00;;;;;;;6.53;4.00;;;;;;;;;;10578418;28;20221;-68
2022/06/30 01:32:03;;;;;;;4.10;3.53;;;;;;;;;;10564684;28;20061;-68
2022/06/30 01:37:07;;;;;;;4.35;3.95;;;;;;;;;;10577688;28;20044;-68
2022/06/30 01:42:09;;;;;;;3.65;3.35;;;;;;;;;;10577928;28;20354;-68
2022/06/30 01:47:11;;;;;;;3.40;3.10;;;;;;;;;;10577209;28;20315;-68
2022/06/30 01:52:15;;;;;;;3.92;3.53;;;;;;;;;;10577327;28;20338;-68
2022/06/30 01:57:17;;;;;;;3.60;3.30;;;;;;;;;;10564893;28;20092;-69
2022/06/30 02:02:20;;;;;;;4.18;3.20;;;;;;;;;;10562693;28;20066;-68
2022/06/30 02:07:24;;;;;;;4.03;3.15;;;;;;;;;;10577583;28;20054;-68
2022/06/30 02:17:48;;;;;;;3.72;3.42;;;;;;;;;;10575924;28;20097;-68
2022/06/30 02:22:54;;;;;;;3.33;3.05;;;;;;;;;;10553700;28;20040;-68
2022/06/30 02:27:56;;;;;;;3.30;3.03;;;;;;;;;;10560769;28;20052;-68
2022/06/30 02:32:59;;;;;;;5.13;3.72;;;;;;;;;;10562022;28;20044;-69
2022/06/30 02:38:09;;;;;;;3.58;3.28;;;;;;;;;;10575886;28;20048;-68
2022/06/30 02:43:12;;;;;;;3.90;3.40;;;;;;;;;;10575504;28;20044;-68
2022/06/30 02:48:16;;;;;;;4.13;3.70;;;;;;;;;;10556892;28;20040;-68
2022/06/30 02:53:19;;;;;;;3.42;3.13;;;;;;;;;;10550114;28;20248;-68
2022/06/30 02:58:22;;;;;;;3.55;3.25;;;;;;;;;;10572628;28;20098;-68
2022/06/30 03:03:24;;;;;;;4.28;3.97;;;;;;;;;;10561101;28;20109;-68
2022/06/30 03:08:28;;;;;;;5.38;4.20;;;;;;;;;;10559675;28;20063;-68
2022/06/30 03:13:30;;;;;;;7.97;4.30;;;;;;;;;;10575217;28;20047;-68
2022/06/30 03:18:32;;;;;;;8.85;5.53;;;;;;;;;;10558443;28;20244;-68
2022/06/30 03:23:36;;;;;;;14.68;7.28;;;;;;;;;;10547494;28;20062;-68
2022/06/30 03:28:38;;;;;;;10.10;7.35;;;;;;;;;;10572721;28;20040;-68
2022/06/30 03:33:40;;;;;;;7.85;7.05;;;;;;;;;;10571692;28;20044;-68
2022/06/30 03:38:43;;;;;;;11.05;8.02;;;;;;;;;;10555487;28;20055;-66
2022/06/30 03:43:46;;;;;;;;;;;;;;;;;;10560395;28;20047;-67
2022/06/30 03:48:48;;;;;;;14.07;8.65;;;;;;;;;;10576214;28;20161;-71
2022/06/30 03:53:54;;;;;;;10.52;8.40;;;;;;;;;;10580503;28;20051;-72
2022/06/30 03:58:57;;;;;;;9.88;8.93;;;;;;;;;;10574395;28;20094;-71
